Kanaranzi, Minnesota
Current Conditions -  °F | °C
As of 6:14 AM on Sunday 21 Dec 2014 (Local Time) from KLYV Reporting Station
Haze Haze  
Wind Chill: 24°   Ceiling: 200
Heat Index: 32°   Visibility: 0.75mi
Dew Point: 32°   Wind: 10mph
Humidity: 100%   Direction: 180°S
Pressure: 29.81"   Gusts: NA
Location:  43.58°N, 96.1°W
Report Text: KLYV 211214Z AUTO 18009KT 3/4SM BR OVC002 00/00 A2981 RMK AO2
Loading
Personal Weather Stations






























Interactive Weather Map New forecast layout! Learn more

10-Day Weather Forecast

Advertisements
Track Severe Weather on mobile